createdAt,value
2022-10-31T00:01:27.753Z,11.11
2022-10-31T00:03:54.922Z,11.11
2022-10-31T00:06:22.873Z,11.07
2022-10-31T00:08:58.056Z,11.02
2022-10-31T00:11:25.583Z,10.92
2022-10-31T00:13:52.901Z,10.90
2022-10-31T00:16:25.121Z,10.90
2022-10-31T00:18:54.252Z,10.86
2022-10-31T00:21:21.739Z,10.82
2022-10-31T00:23:49.258Z,10.79
2022-10-31T00:26:16.889Z,10.77
2022-10-31T00:28:44.692Z,10.77
2022-10-31T00:31:14.292Z,10.77
2022-10-31T00:33:42.446Z,10.77
2022-10-31T00:36:13.943Z,10.46
2022-10-31T00:38:42.651Z,10.73
2022-10-31T00:41:10.770Z,10.68
2022-10-31T00:43:41.453Z,10.83
2022-10-31T00:46:10.110Z,10.88
2022-10-31T00:48:37.218Z,10.85
2022-10-31T00:51:04.570Z,10.71
2022-10-31T00:53:31.901Z,10.85
2022-10-31T00:56:00.759Z,10.85
2022-10-31T00:58:27.970Z,10.54
2022-10-31T01:00:58.135Z,10.70
2022-10-31T01:03:31.217Z,10.85
2022-10-31T01:06:06.554Z,10.86
2022-10-31T01:08:34.461Z,10.90
2022-10-31T01:11:07.006Z,10.93
2022-10-31T01:13:35.456Z,10.94
2022-10-31T01:16:03.916Z,10.93
2022-10-31T01:18:33.172Z,10.80
2022-10-31T01:21:12.047Z,10.91
2022-10-31T01:23:39.686Z,10.90
2022-10-31T01:26:15.460Z,10.90
2022-10-31T01:28:48.756Z,10.93
2022-10-31T01:31:17.929Z,10.93
2022-10-31T01:33:45.852Z,10.89
2022-10-31T01:36:18.110Z,10.93
2022-10-31T01:38:46.298Z,10.94
2022-10-31T01:41:16.472Z,10.90
2022-10-31T01:43:56.400Z,10.84
2022-10-31T01:46:34.396Z,10.79
2022-10-31T01:49:05.535Z,10.79
2022-10-31T01:51:40.428Z,10.80
2022-10-31T01:54:11.231Z,10.68
2022-10-31T01:56:44.024Z,10.87
2022-10-31T01:59:18.940Z,10.86
2022-10-31T02:01:47.162Z,10.81
2022-10-31T02:04:16.202Z,10.84
2022-10-31T02:06:51.432Z,10.81
2022-10-31T02:09:24.632Z,10.60
2022-10-31T02:11:59.022Z,10.84
2022-10-31T02:14:29.095Z,10.87
2022-10-31T02:16:56.652Z,10.86
2022-10-31T02:19:52.875Z,10.84
2022-10-31T02:22:45.538Z,10.81
2022-10-31T02:25:19.630Z,10.82
2022-10-31T02:27:49.857Z,10.84
2022-10-31T02:30:24.860Z,10.87
2022-10-31T02:32:59.076Z,10.59
2022-10-31T02:35:51.404Z,10.89
2022-10-31T02:38:21.353Z,10.90
2022-10-31T02:40:49.833Z,10.92
2022-10-31T02:44:21.462Z,10.96
2022-10-31T02:47:00.741Z,10.90
2022-10-31T02:49:38.235Z,10.96
2022-10-31T02:52:17.834Z,10.95
2022-10-31T02:54:45.941Z,10.85
2022-10-31T02:57:14.401Z,10.89
2022-10-31T02:59:48.365Z,10.85
2022-10-31T03:02:37.293Z,10.92
2022-10-31T03:05:28.817Z,10.93
2022-10-31T03:08:13.393Z,10.94
2022-10-31T03:10:55.233Z,10.95
2022-10-31T03:13:55.913Z,10.93
2022-10-31T03:16:35.991Z,10.96
2022-10-31T03:19:41.175Z,10.94
2022-10-31T03:22:16.779Z,10.88
2022-10-31T03:24:46.159Z,10.99
2022-10-31T03:27:17.136Z,10.99
2022-10-31T03:29:46.241Z,10.82
2022-10-31T03:32:21.950Z,11.05
2022-10-31T03:34:51.835Z,11.03
2022-10-31T03:37:21.073Z,10.45
2022-10-31T03:39:50.926Z,11.07
2022-10-31T03:42:32.821Z,11.01
2022-10-31T03:45:09.047Z,11.12
2022-10-31T03:47:39.205Z,11.14
2022-10-31T03:50:08.750Z,11.12
2022-10-31T03:52:51.112Z,11.15
2022-10-31T03:55:18.292Z,11.15
2022-10-31T03:58:01.739Z,11.13
2022-10-31T04:00:31.771Z,11.01
2022-10-31T04:03:10.777Z,11.11
2022-10-31T04:05:42.052Z,11.06
2022-10-31T04:08:14.264Z,11.09
2022-10-31T04:10:45.111Z,11.04
2022-10-31T04:13:16.015Z,11.02
2022-10-31T04:15:51.037Z,11.08
2022-10-31T04:18:19.089Z,10.80
2022-10-31T04:20:49.796Z,10.98
2022-10-31T04:23:24.472Z,11.05
2022-10-31T04:25:51.973Z,11.06
2022-10-31T04:30:47.152Z,11.06
2022-10-31T04:33:14.600Z,11.04
2022-10-31T04:35:44.125Z,10.70
2022-10-31T04:38:11.867Z,11.02
2022-10-31T04:40:40.356Z,11.01
2022-10-31T04:43:30.359Z,10.94
2022-10-31T04:46:00.202Z,10.85
2022-10-31T04:48:27.438Z,10.68
2022-10-31T04:50:54.631Z,10.84
2022-10-31T04:53:22.362Z,10.89
2022-10-31T04:56:09.691Z,10.43
2022-10-31T04:58:41.709Z,10.82
2022-10-31T05:01:11.029Z,10.90
2022-10-31T05:03:40.432Z,10.76
2022-10-31T05:06:08.574Z,10.91
2022-10-31T05:08:37.003Z,10.81
2022-10-31T05:11:06.812Z,10.89
2022-10-31T05:13:34.605Z,10.88
2022-10-31T05:16:14.073Z,10.68
2022-10-31T05:18:47.309Z,10.86
2022-10-31T05:21:33.256Z,10.64
2022-10-31T05:24:03.106Z,10.68
2022-10-31T05:26:30.920Z,10.77
2022-10-31T05:28:58.052Z,10.83
2022-10-31T05:31:25.281Z,10.80
2022-10-31T05:33:54.372Z,10.82
2022-10-31T05:36:40.192Z,10.80
2022-10-31T05:39:16.273Z,10.84
2022-10-31T05:41:47.764Z,10.78
2022-10-31T05:44:25.330Z,10.64
2022-10-31T05:46:58.985Z,10.81
2022-10-31T05:49:44.871Z,10.81
2022-10-31T05:52:24.301Z,10.76
2022-10-31T05:54:58.902Z,10.87
2022-10-31T05:57:26.060Z,10.92
2022-10-31T05:59:55.198Z,10.87
2022-10-31T06:02:24.211Z,10.81
2022-10-31T06:05:09.907Z,10.80
2022-10-31T06:07:38.762Z,10.58
2022-10-31T06:10:08.831Z,10.79
2022-10-31T06:12:41.726Z,10.79
2022-10-31T06:15:31.794Z,10.69
2022-10-31T06:18:05.507Z,10.59
2022-10-31T06:20:44.545Z,10.82
2022-10-31T06:23:11.791Z,10.82
2022-10-31T06:25:40.924Z,10.68
2022-10-31T06:28:09.134Z,10.96
2022-10-31T06:30:51.643Z,10.94
2022-10-31T06:33:19.400Z,11.00
2022-10-31T06:35:56.455Z,10.99
2022-10-31T06:38:24.227Z,10.94
2022-10-31T06:40:52.212Z,10.88
2022-10-31T06:43:24.103Z,10.97
2022-10-31T06:46:10.507Z,10.72
2022-10-31T06:48:47.516Z,10.95
2022-10-31T06:51:19.252Z,10.92
2022-10-31T06:53:46.703Z,10.89
2022-10-31T06:56:16.610Z,10.94
2022-10-31T06:58:48.875Z,10.90
2022-10-31T07:01:18.464Z,10.46
2022-10-31T07:03:45.803Z,10.72
2022-10-31T07:06:12.980Z,10.89
2022-10-31T07:08:40.442Z,10.72
2022-10-31T07:11:08.016Z,10.79
2022-10-31T07:13:35.327Z,11.09
2022-10-31T07:16:08.564Z,11.02
2022-10-31T07:18:36.940Z,11.04
2022-10-31T07:21:04.793Z,11.18
2022-10-31T07:23:32.629Z,11.17
2022-10-31T07:26:25.715Z,11.13
2022-10-31T07:28:52.922Z,11.13
2022-10-31T07:31:23.071Z,11.13
2022-10-31T07:33:52.111Z,11.17
2022-10-31T07:36:28.415Z,11.11
2022-10-31T07:39:00.263Z,11.05
2022-10-31T07:41:27.625Z,10.96
2022-10-31T07:43:54.985Z,10.74
2022-10-31T07:46:41.123Z,11.14
2022-10-31T07:49:24.206Z,11.19
2022-10-31T07:52:11.606Z,11.28
2022-10-31T07:54:50.900Z,11.29
2022-10-31T07:57:25.030Z,11.13
2022-10-31T07:59:52.808Z,11.23
2022-10-31T08:02:20.262Z,11.21
2022-10-31T08:05:22.348Z,11.22
2022-10-31T08:08:10.352Z,11.36
2022-10-31T08:10:38.723Z,11.38
2022-10-31T08:13:11.211Z,11.40
2022-10-31T08:15:43.233Z,11.40
2022-10-31T08:18:14.565Z,11.42
2022-10-31T08:20:43.186Z,11.46
2022-10-31T08:23:11.934Z,11.24
2022-10-31T08:25:40.042Z,11.46
2022-10-31T08:28:08.491Z,11.02
2022-10-31T08:30:37.691Z,11.21
2022-10-31T08:33:23.179Z,11.52
2022-10-31T08:36:09.364Z,10.95
2022-10-31T08:39:02.279Z,11.57
2022-10-31T08:41:31.824Z,11.62
2022-10-31T08:44:00.731Z,11.66
2022-10-31T08:46:27.876Z,11.69
2022-10-31T08:48:55.174Z,11.42
2022-10-31T08:51:23.583Z,11.74
2022-10-31T08:53:53.871Z,11.68
2022-10-31T08:56:36.454Z,11.66
2022-10-31T08:59:10.504Z,11.74
2022-10-31T09:01:59.592Z,11.71
2022-10-31T09:04:26.776Z,11.75
2022-10-31T09:07:20.293Z,11.76
2022-10-31T09:09:42.655Z,11.77
2022-10-31T09:12:10.512Z,11.66
2022-10-31T09:15:07.983Z,11.77
2022-10-31T09:17:58.207Z,11.17
2022-10-31T09:20:50.713Z,11.81
2022-10-31T09:23:19.215Z,11.82
2022-10-31T09:25:50.405Z,11.84
2022-10-31T09:28:36.761Z,11.91
2022-10-31T09:31:08.520Z,11.91
2022-10-31T09:33:55.090Z,11.88
2022-10-31T09:36:39.439Z,11.90
2022-10-31T09:39:09.834Z,11.65
2022-10-31T09:42:20.051Z,11.86
2022-10-31T09:45:16.034Z,11.97
2022-10-31T09:47:52.141Z,12.05
2022-10-31T09:50:58.950Z,12.05
2022-10-31T09:53:51.763Z,12.06
2022-10-31T09:56:24.110Z,12.06
2022-10-31T09:59:02.062Z,11.94
2022-10-31T10:01:32.966Z,12.04
2022-10-31T10:04:06.621Z,11.98
2022-10-31T10:06:55.606Z,11.89
2022-10-31T10:09:54.996Z,12.18
2022-10-31T10:13:17.274Z,12.19
2022-10-31T10:15:47.261Z,12.23
2022-10-31T10:18:34.281Z,12.25
2022-10-31T10:21:20.042Z,12.33
2022-10-31T10:24:13.162Z,12.36
2022-10-31T10:27:07.262Z,12.36
2022-10-31T10:30:03.084Z,12.38
2022-10-31T10:32:35.741Z,12.37
2022-10-31T10:35:17.954Z,12.40
2022-10-31T10:37:47.638Z,12.18
2022-10-31T10:40:28.181Z,12.45
2022-10-31T10:43:23.846Z,12.49
2022-10-31T10:46:15.783Z,12.53
2022-10-31T10:48:49.590Z,12.59
2022-10-31T10:52:02.648Z,12.62
2022-10-31T10:55:00.559Z,12.65
2022-10-31T10:57:33.775Z,12.71
2022-10-31T11:00:04.825Z,12.74
2022-10-31T11:02:34.152Z,12.78
2022-10-31T11:05:02.922Z,12.55
2022-10-31T11:07:41.341Z,12.82
2022-10-31T11:10:17.695Z,12.71
2022-10-31T11:12:59.338Z,12.77
2022-10-31T11:15:28.961Z,12.63
2022-10-31T11:17:57.400Z,12.80
2022-10-31T11:20:32.022Z,12.78
2022-10-31T11:23:18.832Z,12.85
2022-10-31T11:25:52.721Z,12.84
2022-10-31T11:28:19.978Z,12.77
2022-10-31T11:30:57.293Z,12.84
2022-10-31T11:33:47.285Z,12.76
2022-10-31T11:36:22.771Z,12.90
2022-10-31T11:38:51.197Z,12.91
2022-10-31T11:41:41.251Z,12.91
2022-10-31T11:44:29.764Z,12.90
2022-10-31T11:47:01.481Z,12.88
2022-10-31T11:49:37.434Z,12.75
2022-10-31T11:52:18.787Z,12.94
2022-10-31T11:54:54.923Z,12.92
2022-10-31T11:57:30.884Z,12.91
2022-10-31T12:00:00.871Z,12.81
2022-10-31T12:02:28.788Z,12.83
2022-10-31T12:05:21.422Z,12.88
2022-10-31T12:07:50.199Z,12.89
2022-10-31T12:10:20.895Z,12.92
2022-10-31T12:12:50.962Z,13.00
2022-10-31T12:15:34.866Z,12.61
2022-10-31T12:18:29.232Z,13.05
2022-10-31T12:21:09.106Z,13.01
2022-10-31T12:24:02.496Z,13.04
2022-10-31T12:26:54.076Z,13.03
2022-10-31T12:29:42.066Z,13.04
2022-10-31T12:32:30.455Z,13.05
2022-10-31T12:35:16.429Z,13.04
2022-10-31T12:38:02.551Z,13.05
2022-10-31T12:40:33.054Z,13.03
2022-10-31T12:43:25.862Z,12.95
2022-10-31T12:45:58.733Z,13.02
2022-10-31T12:49:15.295Z,12.83
2022-10-31T12:52:02.348Z,13.04
2022-10-31T12:55:04.870Z,12.96
2022-10-31T12:57:34.872Z,13.04
2022-10-31T13:00:15.422Z,13.05
2022-10-31T13:03:06.816Z,13.08
2022-10-31T13:05:40.320Z,13.07
2022-10-31T13:08:17.694Z,13.13
2022-10-31T13:10:49.737Z,13.13
2022-10-31T13:13:28.105Z,13.12
2022-10-31T13:16:20.114Z,13.07
2022-10-31T13:18:54.097Z,12.95
2022-10-31T13:21:56.545Z,12.85
2022-10-31T13:24:37.056Z,13.13
2022-10-31T13:27:14.566Z,13.15
2022-10-31T13:30:02.225Z,13.15
2022-10-31T13:32:39.684Z,12.90
2022-10-31T13:35:12.118Z,12.98
2022-10-31T13:37:54.698Z,13.15
2022-10-31T13:40:37.480Z,13.15
2022-10-31T13:43:44.176Z,13.17
2022-10-31T13:46:33.106Z,13.16
2022-10-31T13:49:01.293Z,13.05
2022-10-31T13:51:35.366Z,13.16
2022-10-31T13:54:20.956Z,13.18
2022-10-31T13:56:53.435Z,13.06
2022-10-31T13:59:24.188Z,13.19
2022-10-31T14:01:56.455Z,13.18
2022-10-31T14:04:26.210Z,13.18
2022-10-31T14:07:13.671Z,13.18
2022-10-31T14:10:20.072Z,13.17
2022-10-31T14:12:49.938Z,13.14
2022-10-31T14:15:21.437Z,13.17
2022-10-31T14:17:52.874Z,13.16
2022-10-31T14:20:20.933Z,13.18
2022-10-31T14:22:48.303Z,13.18
2022-10-31T14:25:34.623Z,13.17
2022-10-31T14:28:05.100Z,13.13
2022-10-31T14:30:32.952Z,13.15
2022-10-31T14:33:03.289Z,13.14
2022-10-31T14:35:52.753Z,13.14
2022-10-31T14:38:45.953Z,13.13
2022-10-31T14:41:47.225Z,13.07
2022-10-31T14:45:09.891Z,13.10
2022-10-31T14:48:07.083Z,13.08
2022-10-31T14:50:53.745Z,13.09
2022-10-31T14:53:30.662Z,13.05
2022-10-31T14:56:02.843Z,13.09
2022-10-31T14:58:33.776Z,12.84
2022-10-31T15:01:01.353Z,13.06
2022-10-31T15:03:35.655Z,13.09
2022-10-31T15:06:15.489Z,13.04
2022-10-31T15:08:48.311Z,13.02
2022-10-31T15:11:18.694Z,13.04
2022-10-31T15:13:56.314Z,13.01
2022-10-31T15:16:23.585Z,13.00
2022-10-31T15:18:57.665Z,13.00
2022-10-31T15:21:26.995Z,12.97
2022-10-31T15:23:56.826Z,12.84
2022-10-31T15:26:28.343Z,12.96
2022-10-31T15:29:03.997Z,12.93
2022-10-31T15:31:32.636Z,12.89
2022-10-31T15:34:08.456Z,12.92
2022-10-31T15:36:38.373Z,12.72
2022-10-31T15:39:06.172Z,12.92
2022-10-31T15:41:43.662Z,12.91
2022-10-31T15:44:31.606Z,12.90
2022-10-31T15:47:05.455Z,12.86
2022-10-31T15:49:48.366Z,12.89
2022-10-31T15:52:40.008Z,12.88
2022-10-31T15:55:12.403Z,12.87
2022-10-31T15:57:45.373Z,12.86
2022-10-31T16:00:42.045Z,12.86
2022-10-31T16:03:24.842Z,12.86
2022-10-31T16:05:54.841Z,12.88
2022-10-31T16:08:35.710Z,12.87
2022-10-31T16:11:09.130Z,12.86
2022-10-31T16:13:39.291Z,12.84
2022-10-31T16:19:05.900Z,12.85
2022-10-31T16:21:37.602Z,12.81
2022-10-31T16:24:16.724Z,12.81
2022-10-31T16:26:52.255Z,12.82
2022-10-31T16:29:34.841Z,12.82
2022-10-31T16:32:02.248Z,12.81
2022-10-31T16:34:29.414Z,12.59
2022-10-31T16:36:56.562Z,12.20
2022-10-31T16:39:23.867Z,12.78
2022-10-31T16:41:53.828Z,12.77
2022-10-31T16:44:24.805Z,12.74
2022-10-31T16:47:14.809Z,12.69
2022-10-31T16:49:47.730Z,12.70
2022-10-31T16:52:15.132Z,12.71
2022-10-31T16:54:42.363Z,12.62
2022-10-31T16:57:18.561Z,12.55
2022-10-31T16:59:49.610Z,12.70
2022-10-31T17:02:18.232Z,12.66
2022-10-31T17:04:45.576Z,12.49
2022-10-31T17:07:12.646Z,12.64
2022-10-31T17:09:39.996Z,12.34
2022-10-31T17:12:12.828Z,12.69
2022-10-31T17:14:40.323Z,12.69
2022-10-31T17:17:08.822Z,12.59
2022-10-31T17:19:36.102Z,12.63
2022-10-31T17:22:03.363Z,12.57
2022-10-31T17:24:30.936Z,12.61
2022-10-31T17:26:58.137Z,12.31
2022-10-31T17:29:25.262Z,12.35
2022-10-31T17:31:52.432Z,12.63
2022-10-31T17:34:19.604Z,12.47
2022-10-31T17:36:53.601Z,12.66
2022-10-31T17:39:21.457Z,12.68
2022-10-31T17:41:52.541Z,12.68
2022-10-31T17:44:20.166Z,12.55
2022-10-31T17:46:47.518Z,12.68
2022-10-31T17:49:15.176Z,12.68
2022-10-31T17:51:42.587Z,12.67
2022-10-31T17:54:11.325Z,12.66
2022-10-31T17:56:38.381Z,12.66
2022-10-31T18:01:33.636Z,12.67
2022-10-31T18:04:01.021Z,12.31
2022-10-31T18:06:28.099Z,12.67
2022-10-31T18:08:58.113Z,12.64
2022-10-31T18:11:25.361Z,12.45
2022-10-31T18:13:59.808Z,12.20
2022-10-31T18:16:27.536Z,12.52
2022-10-31T18:18:59.457Z,12.63
2022-10-31T18:21:26.796Z,12.30
2022-10-31T18:23:55.293Z,12.35
2022-10-31T18:26:23.587Z,12.58
2022-10-31T18:28:50.732Z,12.59
2022-10-31T18:31:18.042Z,12.54
2022-10-31T18:33:45.667Z,12.57
2022-10-31T18:36:13.513Z,12.58
2022-10-31T18:38:42.686Z,12.53
2022-10-31T18:41:09.840Z,12.47
2022-10-31T18:43:37.621Z,12.51
2022-10-31T18:46:07.535Z,12.49
2022-10-31T18:48:35.196Z,12.38
2022-10-31T18:51:06.071Z,12.49
2022-10-31T18:53:33.414Z,12.48
2022-10-31T18:56:01.265Z,12.35
2022-10-31T18:58:29.201Z,12.30
2022-10-31T19:00:56.425Z,12.27
2022-10-31T19:03:27.558Z,12.47
2022-10-31T19:05:56.242Z,12.48
2022-10-31T19:08:24.357Z,12.48
2022-10-31T19:10:51.664Z,12.27
2022-10-31T19:13:18.872Z,12.30
2022-10-31T19:15:46.300Z,12.29
2022-10-31T19:18:13.654Z,12.46
2022-10-31T19:20:40.793Z,12.47
2022-10-31T19:23:08.110Z,12.47
2022-10-31T19:25:35.443Z,12.46
2022-10-31T19:28:02.824Z,12.44
2022-10-31T19:30:30.225Z,12.23
2022-10-31T19:32:57.632Z,12.43
2022-10-31T19:35:24.890Z,11.96
2022-10-31T19:37:52.024Z,12.28
2022-10-31T19:40:19.325Z,12.44
2022-10-31T19:42:46.640Z,12.43
2022-10-31T19:45:13.952Z,12.39
2022-10-31T19:47:41.274Z,12.33
2022-10-31T19:50:09.249Z,12.23
2022-10-31T19:52:36.413Z,12.38
2022-10-31T19:55:03.983Z,12.46
2022-10-31T19:57:56.522Z,12.45
2022-10-31T20:00:22.810Z,12.44
2022-10-31T20:02:49.905Z,12.24
2022-10-31T20:05:17.252Z,12.27
2022-10-31T20:07:44.425Z,12.19
2022-10-31T20:10:12.024Z,12.19
2022-10-31T20:12:39.625Z,12.34
2022-10-31T20:15:07.057Z,12.36
2022-10-31T20:17:34.271Z,12.35
2022-10-31T20:20:07.352Z,12.39
2022-10-31T20:22:36.110Z,12.40
2022-10-31T20:25:04.176Z,12.40
2022-10-31T20:27:32.121Z,12.20
2022-10-31T20:29:59.436Z,12.22
2022-10-31T20:32:26.802Z,12.04
2022-10-31T20:34:54.061Z,12.38
2022-10-31T20:37:21.234Z,12.33
2022-10-31T20:39:50.369Z,12.28
2022-10-31T20:42:22.237Z,12.17
2022-10-31T20:44:49.440Z,12.33
2022-10-31T20:47:18.492Z,12.37
2022-10-31T20:49:47.710Z,12.16
2022-10-31T20:52:14.791Z,12.22
2022-10-31T20:54:42.062Z,12.08
2022-10-31T20:57:09.206Z,12.13
2022-10-31T20:59:36.401Z,12.37
2022-10-31T21:02:03.726Z,12.36
2022-10-31T21:04:30.935Z,12.37
2022-10-31T21:06:58.053Z,12.22
2022-10-31T21:09:25.234Z,11.88
2022-10-31T21:11:52.451Z,12.32
2022-10-31T21:14:19.722Z,12.32
2022-10-31T21:16:46.894Z,12.37
2022-10-31T21:19:14.042Z,12.32
2022-10-31T21:21:41.425Z,12.09
2022-10-31T21:24:14.012Z,12.13
2022-10-31T21:26:44.567Z,12.34
2022-10-31T21:29:13.196Z,12.35
2022-10-31T21:31:41.481Z,12.18
2022-10-31T21:34:09.616Z,12.35
2022-10-31T21:36:37.327Z,12.36
2022-10-31T21:39:06.983Z,12.36
2022-10-31T21:41:34.347Z,12.36
2022-10-31T21:44:01.766Z,12.27
2022-10-31T21:46:31.475Z,12.16
2022-10-31T21:48:59.005Z,12.34
2022-10-31T21:51:32.574Z,12.33
2022-10-31T21:54:18.684Z,12.32
2022-10-31T21:56:46.217Z,12.35
2022-10-31T21:59:13.632Z,12.23
2022-10-31T22:01:40.886Z,11.86
2022-10-31T22:04:08.277Z,12.35
2022-10-31T22:06:36.929Z,12.39
2022-10-31T22:09:06.585Z,12.39
2022-10-31T22:11:34.619Z,12.39
2022-10-31T22:14:03.016Z,12.23
2022-10-31T22:16:31.562Z,12.40
2022-10-31T22:19:00.466Z,12.22
2022-10-31T22:21:28.955Z,12.43
2022-10-31T22:24:01.956Z,12.42
2022-10-31T22:26:32.828Z,12.43
2022-10-31T22:29:03.734Z,12.26
2022-10-31T22:31:32.462Z,12.42
2022-10-31T22:34:00.230Z,12.39
2022-10-31T22:36:30.262Z,12.38
2022-10-31T22:38:58.947Z,12.35
2022-10-31T22:41:31.863Z,12.48
2022-10-31T22:43:59.928Z,12.47
2022-10-31T22:46:30.572Z,12.30
2022-10-31T22:49:00.398Z,12.41
2022-10-31T22:51:33.408Z,12.45
2022-10-31T22:54:00.863Z,12.46
2022-10-31T22:56:34.097Z,12.47
2022-10-31T22:59:02.304Z,12.02
2022-10-31T23:01:33.810Z,12.47
2022-10-31T23:04:02.088Z,12.47
2022-10-31T23:06:31.302Z,12.32
2022-10-31T23:09:01.338Z,12.46
2022-10-31T23:11:54.909Z,12.40
2022-10-31T23:14:22.119Z,12.45
2022-10-31T23:16:54.564Z,12.46
2022-10-31T23:19:28.279Z,12.45
2022-10-31T23:22:02.309Z,12.44
2022-10-31T23:24:36.509Z,12.43
2022-10-31T23:27:11.895Z,12.40
2022-10-31T23:29:50.917Z,12.40
2022-10-31T23:32:32.664Z,12.40
2022-10-31T23:35:02.769Z,12.26
2022-10-31T23:37:32.266Z,12.38
2022-10-31T23:39:59.939Z,12.37
2022-10-31T23:42:28.300Z,12.36
2022-10-31T23:44:55.883Z,12.35
2022-10-31T23:47:23.734Z,12.36
2022-10-31T23:49:51.295Z,12.37
2022-10-31T23:52:19.296Z,12.37
2022-10-31T23:54:46.520Z,12.20
2022-10-31T23:57:15.482Z,12.33
2022-10-31T23:59:42.942Z,12.15
